In Rescue
 
Open Full Screen Window  High Contrast Mode
Wind Gusting 00 knots
11
October 25, 2021 3:51 PM CDT
Weather Information
Wind Direction
  110 °
Wind Speed
  11 kt (13 mph)
Wind Gust
  00 kt (0 mph)
Altimeter
30.15 in
Visibility
10 SM
Temperature
09° C
48° F
Dewpoint
03° C
37° F
Humidity
66%
1hr Rain Fall
00.00 in.
24hr Rain Fall
00.00 in.
Sky Condition
Clear
VFR

METAR KRRT 252051Z AUTO 11011KT 10SM CLR 09/03 A3015 RMK AO2

FAA Disclaimer: The data displayed is for advisory purposes only and is not to be used for flight planning or operations.